sensor_id;sensor_type;location;lat;lon;timestamp;pressure;altitude;pressure_sealevel;temperature
65823;BMP180;52585;47.566;19.056;2022-12-18T00:01:23;101688.60;;;3.10
65823;BMP180;52585;47.566;19.056;2022-12-18T00:03:50;101684.00;;;3.08
65823;BMP180;52585;47.566;19.056;2022-12-18T00:06:17;101687.80;;;3.02
65823;BMP180;52585;47.566;19.056;2022-12-18T00:08:44;101689.60;;;3.00
65823;BMP180;52585;47.566;19.056;2022-12-18T00:11:19;101699.80;;;3.00
65823;BMP180;52585;47.566;19.056;2022-12-18T00:13:47;101704.60;;;3.00
65823;BMP180;52585;47.566;19.056;2022-12-18T00:16:17;101709.60;;;3.00
65823;BMP180;52585;47.566;19.056;2022-12-18T00:18:47;101717.00;;;3.00
65823;BMP180;52585;47.566;19.056;2022-12-18T00:21:14;101721.40;;;2.98
65823;BMP180;52585;47.566;19.056;2022-12-18T00:23:43;101724.60;;;2.90
65823;BMP180;52585;47.566;19.056;2022-12-18T00:26:36;101733.60;;;2.92
65823;BMP180;52585;47.566;19.056;2022-12-18T00:29:11;101734.60;;;2.90
65823;BMP180;52585;47.566;19.056;2022-12-18T00:31:40;101748.40;;;2.90
65823;BMP180;52585;47.566;19.056;2022-12-18T00:34:06;101747.60;;;2.90
65823;BMP180;52585;47.566;19.056;2022-12-18T00:36:34;101748.60;;;2.90
65823;BMP180;52585;47.566;19.056;2022-12-18T00:39:04;101752.00;;;2.90
65823;BMP180;52585;47.566;19.056;2022-12-18T00:41:29;101754.80;;;2.90
65823;BMP180;52585;47.566;19.056;2022-12-18T00:44:16;101754.60;;;2.80
65823;BMP180;52585;47.566;19.056;2022-12-18T00:46:43;101759.80;;;2.80
65823;BMP180;52585;47.566;19.056;2022-12-18T00:49:15;101763.80;;;2.80
65823;BMP180;52585;47.566;19.056;2022-12-18T00:51:41;101764.60;;;2.80
65823;BMP180;52585;47.566;19.056;2022-12-18T00:54:07;101764.20;;;2.80
65823;BMP180;52585;47.566;19.056;2022-12-18T00:56:37;101767.80;;;2.80
65823;BMP180;52585;47.566;19.056;2022-12-18T00:59:03;101772.60;;;2.80
65823;BMP180;52585;47.566;19.056;2022-12-18T01:01:28;101776.00;;;2.80
65823;BMP180;52585;47.566;19.056;2022-12-18T01:03:57;101783.00;;;2.80
65823;BMP180;52585;47.566;19.056;2022-12-18T01:06:22;101786.40;;;2.80
65823;BMP180;52585;47.566;19.056;2022-12-18T01:08:48;101790.60;;;2.80
65823;BMP180;52585;47.566;19.056;2022-12-18T01:11:17;101783.80;;;2.80
65823;BMP180;52585;47.566;19.056;2022-12-18T01:13:43;101794.00;;;2.78
65823;BMP180;52585;47.566;19.056;2022-12-18T01:16:13;101796.00;;;2.72
65823;BMP180;52585;47.566;19.056;2022-12-18T01:18:39;101796.00;;;2.70
65823;BMP180;52585;47.566;19.056;2022-12-18T01:21:11;101792.60;;;2.70
65823;BMP180;52585;47.566;19.056;2022-12-18T01:23:37;101789.20;;;2.70
65823;BMP180;52585;47.566;19.056;2022-12-18T01:26:09;101794.40;;;2.70
65823;BMP180;52585;47.566;19.056;2022-12-18T01:28:36;101799.80;;;2.70
65823;BMP180;52585;47.566;19.056;2022-12-18T01:31:19;101799.40;;;2.70
65823;BMP180;52585;47.566;19.056;2022-12-18T01:33:45;101809.60;;;2.70
65823;BMP180;52585;47.566;19.056;2022-12-18T01:38:46;101809.80;;;2.60
65823;BMP180;52585;47.566;19.056;2022-12-18T01:41:13;101803.40;;;2.60
65823;BMP180;52585;47.566;19.056;2022-12-18T01:43:47;101806.60;;;2.60
65823;BMP180;52585;47.566;19.056;2022-12-18T01:46:14;101809.40;;;2.60
65823;BMP180;52585;47.566;19.056;2022-12-18T01:48:41;101809.40;;;2.60
65823;BMP180;52585;47.566;19.056;2022-12-18T01:51:10;101810.00;;;2.60
65823;BMP180;52585;47.566;19.056;2022-12-18T01:53:39;101817.60;;;2.60
65823;BMP180;52585;47.566;19.056;2022-12-18T01:56:07;101819.20;;;2.60
65823;BMP180;52585;47.566;19.056;2022-12-18T01:59:03;101821.20;;;2.60
65823;BMP180;52585;47.566;19.056;2022-12-18T02:01:32;101820.60;;;2.60
65823;BMP180;52585;47.566;19.056;2022-12-18T02:04:25;101819.20;;;2.60
65823;BMP180;52585;47.566;19.056;2022-12-18T02:13:28;101839.00;;;2.50
65823;BMP180;52585;47.566;19.056;2022-12-18T02:16:25;101846.00;;;2.50
65823;BMP180;52585;47.566;19.056;2022-12-18T02:19:03;101845.60;;;2.50
65823;BMP180;52585;47.566;19.056;2022-12-18T02:27:19;101856.80;;;2.50
65823;BMP180;52585;47.566;19.056;2022-12-18T02:29:53;101860.00;;;2.50
65823;BMP180;52585;47.566;19.056;2022-12-18T02:32:27;101860.00;;;2.50
65823;BMP180;52585;47.566;19.056;2022-12-18T02:34:57;101864.60;;;2.50
65823;BMP180;52585;47.566;19.056;2022-12-18T02:37:24;101867.40;;;2.50
65823;BMP180;52585;47.566;19.056;2022-12-18T02:39:55;101869.00;;;2.50
65823;BMP180;52585;47.566;19.056;2022-12-18T02:42:22;101875.00;;;2.50
65823;BMP180;52585;47.566;19.056;2022-12-18T02:44:51;101875.00;;;2.48
65823;BMP180;52585;47.566;19.056;2022-12-18T02:47:23;101883.60;;;2.46
65823;BMP180;52585;47.566;19.056;2022-12-18T02:52:52;101884.80;;;2.40
65823;BMP180;52585;47.566;19.056;2022-12-18T02:57:59;101888.60;;;2.40
65823;BMP180;52585;47.566;19.056;2022-12-18T03:03:26;101893.60;;;2.40
65823;BMP180;52585;47.566;19.056;2022-12-18T03:06:30;101902.80;;;2.40
65823;BMP180;52585;47.566;19.056;2022-12-18T03:09:07;101907.80;;;2.40
65823;BMP180;52585;47.566;19.056;2022-12-18T03:11:40;101915.00;;;2.40
65823;BMP180;52585;47.566;19.056;2022-12-18T03:14:29;101910.40;;;2.40
65823;BMP180;52585;47.566;19.056;2022-12-18T03:17:01;101908.40;;;2.40
65823;BMP180;52585;47.566;19.056;2022-12-18T03:19:32;101909.20;;;2.40
65823;BMP180;52585;47.566;19.056;2022-12-18T03:22:02;101910.20;;;2.40
65823;BMP180;52585;47.566;19.056;2022-12-18T03:24:31;101917.40;;;2.38
65823;BMP180;52585;47.566;19.056;2022-12-18T03:27:06;101918.60;;;2.30
65823;BMP180;52585;47.566;19.056;2022-12-18T03:29:47;101924.00;;;2.30
65823;BMP180;52585;47.566;19.056;2022-12-18T03:32:53;101925.00;;;2.30
65823;BMP180;52585;47.566;19.056;2022-12-18T03:35:26;101936.80;;;2.30
65823;BMP180;52585;47.566;19.056;2022-12-18T03:37:54;101940.20;;;2.30
65823;BMP180;52585;47.566;19.056;2022-12-18T03:46:21;101952.20;;;2.30
65823;BMP180;52585;47.566;19.056;2022-12-18T03:48:59;101957.80;;;2.30
65823;BMP180;52585;47.566;19.056;2022-12-18T03:54:03;101962.00;;;2.30
65823;BMP180;52585;47.566;19.056;2022-12-18T03:56:40;101960.80;;;2.30
65823;BMP180;52585;47.566;19.056;2022-12-18T03:59:10;101956.80;;;2.30
65823;BMP180;52585;47.566;19.056;2022-12-18T04:01:45;101955.00;;;2.30
65823;BMP180;52585;47.566;19.056;2022-12-18T04:04:12;101956.40;;;2.28
65823;BMP180;52585;47.566;19.056;2022-12-18T04:06:41;101958.00;;;2.24
65823;BMP180;52585;47.566;19.056;2022-12-18T04:09:08;101962.40;;;2.22
65823;BMP180;52585;47.566;19.056;2022-12-18T04:11:33;101964.80;;;2.20
65823;BMP180;52585;47.566;19.056;2022-12-18T04:13:59;101963.00;;;2.20
65823;BMP180;52585;47.566;19.056;2022-12-18T04:16:26;101965.20;;;2.20
65823;BMP180;52585;47.566;19.056;2022-12-18T04:18:53;101965.20;;;2.20
65823;BMP180;52585;47.566;19.056;2022-12-18T04:21:20;101965.20;;;2.20
65823;BMP180;52585;47.566;19.056;2022-12-18T04:23:46;101964.20;;;2.20
65823;BMP180;52585;47.566;19.056;2022-12-18T04:26:12;101969.40;;;2.20
65823;BMP180;52585;47.566;19.056;2022-12-18T04:28:37;101972.00;;;2.20
65823;BMP180;52585;47.566;19.056;2022-12-18T04:31:03;101972.40;;;2.18
65823;BMP180;52585;47.566;19.056;2022-12-18T04:33:28;101972.60;;;2.18
65823;BMP180;52585;47.566;19.056;2022-12-18T04:35:54;101973.60;;;2.10
65823;BMP180;52585;47.566;19.056;2022-12-18T04:38:20;101975.00;;;2.10
65823;BMP180;52585;47.566;19.056;2022-12-18T04:40:45;101976.60;;;2.10
65823;BMP180;52585;47.566;19.056;2022-12-18T04:43:11;101981.60;;;2.10
65823;BMP180;52585;47.566;19.056;2022-12-18T04:45:36;101988.60;;;2.10
65823;BMP180;52585;47.566;19.056;2022-12-18T04:48:03;101992.20;;;2.10
65823;BMP180;52585;47.566;19.056;2022-12-18T04:50:30;101996.40;;;2.10
65823;BMP180;52585;47.566;19.056;2022-12-18T04:52:57;102000.20;;;2.10
65823;BMP180;52585;47.566;19.056;2022-12-18T04:55:23;102000.20;;;2.10
65823;BMP180;52585;47.566;19.056;2022-12-18T04:57:48;102012.60;;;2.10
65823;BMP180;52585;47.566;19.056;2022-12-18T05:00:14;102010.80;;;2.10
65823;BMP180;52585;47.566;19.056;2022-12-18T05:02:40;102009.00;;;2.08
65823;BMP180;52585;47.566;19.056;2022-12-18T05:05:06;102011.40;;;2.02
65823;BMP180;52585;47.566;19.056;2022-12-18T05:07:32;102010.80;;;2.00
65823;BMP180;52585;47.566;19.056;2022-12-18T05:09:57;102018.60;;;2.00
65823;BMP180;52585;47.566;19.056;2022-12-18T05:12:23;102018.20;;;2.00
65823;BMP180;52585;47.566;19.056;2022-12-18T05:14:49;102029.00;;;2.00
65823;BMP180;52585;47.566;19.056;2022-12-18T05:17:14;102028.00;;;2.00
65823;BMP180;52585;47.566;19.056;2022-12-18T05:19:40;102022.60;;;2.00
65823;BMP180;52585;47.566;19.056;2022-12-18T05:22:05;102024.20;;;2.00
65823;BMP180;52585;47.566;19.056;2022-12-18T05:24:32;102021.60;;;2.00
65823;BMP180;52585;47.566;19.056;2022-12-18T05:26:58;102025.20;;;2.00
65823;BMP180;52585;47.566;19.056;2022-12-18T05:29:23;102029.80;;;2.00
65823;BMP180;52585;47.566;19.056;2022-12-18T05:31:49;102037.00;;;1.94
65823;BMP180;52585;47.566;19.056;2022-12-18T05:34:14;102041.00;;;1.96
65823;BMP180;52585;47.566;19.056;2022-12-18T05:36:40;102050.80;;;1.92
65823;BMP180;52585;47.566;19.056;2022-12-18T05:39:07;102053.00;;;1.90
65823;BMP180;52585;47.566;19.056;2022-12-18T05:41:33;102056.00;;;1.92
65823;BMP180;52585;47.566;19.056;2022-12-18T05:43:59;102055.40;;;1.98
65823;BMP180;52585;47.566;19.056;2022-12-18T05:46:25;102055.20;;;1.92
65823;BMP180;52585;47.566;19.056;2022-12-18T05:48:51;102055.20;;;1.90
65823;BMP180;52585;47.566;19.056;2022-12-18T05:51:21;102061.20;;;1.90
65823;BMP180;52585;47.566;19.056;2022-12-18T05:53:47;102063.00;;;1.90
65823;BMP180;52585;47.566;19.056;2022-12-18T05:56:20;102065.40;;;1.90
65823;BMP180;52585;47.566;19.056;2022-12-18T05:58:47;102071.20;;;1.90
65823;BMP180;52585;47.566;19.056;2022-12-18T06:01:21;102074.00;;;1.90
65823;BMP180;52585;47.566;19.056;2022-12-18T06:03:47;102079.60;;;1.90
65823;BMP180;52585;47.566;19.056;2022-12-18T06:06:26;102079.20;;;1.90
65823;BMP180;52585;47.566;19.056;2022-12-18T06:08:52;102084.60;;;1.90
65823;BMP180;52585;47.566;19.056;2022-12-18T06:11:23;102090.80;;;1.90
65823;BMP180;52585;47.566;19.056;2022-12-18T06:13:51;102091.60;;;1.86
65823;BMP180;52585;47.566;19.056;2022-12-18T06:16:17;102088.00;;;1.84
65823;BMP180;52585;47.566;19.056;2022-12-18T06:18:43;102088.00;;;1.80
65823;BMP180;52585;47.566;19.056;2022-12-18T06:21:08;102090.00;;;1.80
65823;BMP180;52585;47.566;19.056;2022-12-18T06:23:34;102087.40;;;1.80
65823;BMP180;52585;47.566;19.056;2022-12-18T06:26:11;102092.40;;;1.80
65823;BMP180;52585;47.566;19.056;2022-12-18T06:28:37;102095.20;;;1.78
65823;BMP180;52585;47.566;19.056;2022-12-18T06:31:04;102096.00;;;1.70
65823;BMP180;52585;47.566;19.056;2022-12-18T06:33:30;102105.00;;;1.70
65823;BMP180;52585;47.566;19.056;2022-12-18T06:36:05;102106.20;;;1.70
65823;BMP180;52585;47.566;19.056;2022-12-18T06:38:34;102107.60;;;1.70
65823;BMP180;52585;47.566;19.056;2022-12-18T06:41:00;102113.80;;;1.70
65823;BMP180;52585;47.566;19.056;2022-12-18T06:43:26;102116.20;;;1.64
65823;BMP180;52585;47.566;19.056;2022-12-18T06:46:00;102122.20;;;1.60
65823;BMP180;52585;47.566;19.056;2022-12-18T06:48:26;102126.60;;;1.62
65823;BMP180;52585;47.566;19.056;2022-12-18T06:50:51;102127.60;;;1.70
65823;BMP180;52585;47.566;19.056;2022-12-18T06:53:17;102128.60;;;1.70
65823;BMP180;52585;47.566;19.056;2022-12-18T06:55:43;102132.40;;;1.70
65823;BMP180;52585;47.566;19.056;2022-12-18T06:58:08;102143.20;;;1.70
65823;BMP180;52585;47.566;19.056;2022-12-18T07:00:35;102152.20;;;1.70
65823;BMP180;52585;47.566;19.056;2022-12-18T07:03:01;102158.60;;;1.70
65823;BMP180;52585;47.566;19.056;2022-12-18T07:05:26;102154.40;;;1.70
65823;BMP180;52585;47.566;19.056;2022-12-18T07:07:52;102153.80;;;1.70
65823;BMP180;52585;47.566;19.056;2022-12-18T07:10:18;102159.60;;;1.70
65823;BMP180;52585;47.566;19.056;2022-12-18T07:12:43;102164.40;;;1.70
65823;BMP180;52585;47.566;19.056;2022-12-18T07:15:09;102172.60;;;1.66
65823;BMP180;52585;47.566;19.056;2022-12-18T07:17:35;102176.20;;;1.66
65823;BMP180;52585;47.566;19.056;2022-12-18T07:20:01;102177.80;;;1.68
65823;BMP180;52585;47.566;19.056;2022-12-18T07:22:27;102183.80;;;1.70
65823;BMP180;52585;47.566;19.056;2022-12-18T07:24:53;102188.20;;;1.70
65823;BMP180;52585;47.566;19.056;2022-12-18T07:27:19;102190.00;;;1.66
65823;BMP180;52585;47.566;19.056;2022-12-18T07:29:44;102193.00;;;1.64
65823;BMP180;52585;47.566;19.056;2022-12-18T07:32:10;102198.80;;;1.66
65823;BMP180;52585;47.566;19.056;2022-12-18T07:34:35;102206.80;;;1.66
65823;BMP180;52585;47.566;19.056;2022-12-18T07:37:01;102209.60;;;1.70
65823;BMP180;52585;47.566;19.056;2022-12-18T07:39:26;102208.40;;;1.66
65823;BMP180;52585;47.566;19.056;2022-12-18T07:41:52;102212.40;;;1.66
65823;BMP180;52585;47.566;19.056;2022-12-18T07:44:38;102213.80;;;1.70
65823;BMP180;52585;47.566;19.056;2022-12-18T07:47:04;102215.60;;;1.70
65823;BMP180;52585;47.566;19.056;2022-12-18T07:49:30;102220.60;;;1.70
65823;BMP180;52585;47.566;19.056;2022-12-18T07:51:56;102223.20;;;1.70
65823;BMP180;52585;47.566;19.056;2022-12-18T07:54:24;102227.80;;;1.70
65823;BMP180;52585;47.566;19.056;2022-12-18T07:56:51;102232.00;;;1.70
65823;BMP180;52585;47.566;19.056;2022-12-18T07:59:16;102239.40;;;1.78
65823;BMP180;52585;47.566;19.056;2022-12-18T08:01:42;102246.40;;;1.74
65823;BMP180;52585;47.566;19.056;2022-12-18T08:04:08;102249.60;;;1.80
65823;BMP180;52585;47.566;19.056;2022-12-18T08:06:34;102246.60;;;1.80
65823;BMP180;52585;47.566;19.056;2022-12-18T08:08:59;102254.00;;;1.80
65823;BMP180;52585;47.566;19.056;2022-12-18T08:11:28;102260.40;;;1.90
65823;BMP180;52585;47.566;19.056;2022-12-18T08:13:54;102262.00;;;1.90
65823;BMP180;52585;47.566;19.056;2022-12-18T08:16:22;102262.00;;;1.98
65823;BMP180;52585;47.566;19.056;2022-12-18T08:18:49;102259.40;;;2.00
65823;BMP180;52585;47.566;19.056;2022-12-18T08:21:19;102263.60;;;2.00
65823;BMP180;52585;47.566;19.056;2022-12-18T08:23:47;102265.40;;;2.00
65823;BMP180;52585;47.566;19.056;2022-12-18T08:26:13;102262.00;;;2.10
65823;BMP180;52585;47.566;19.056;2022-12-18T08:28:40;102264.80;;;2.10
65823;BMP180;52585;47.566;19.056;2022-12-18T08:31:07;102269.60;;;2.10
65823;BMP180;52585;47.566;19.056;2022-12-18T08:33:33;102274.40;;;2.10
65823;BMP180;52585;47.566;19.056;2022-12-18T08:36:00;102275.40;;;2.10
65823;BMP180;52585;47.566;19.056;2022-12-18T08:38:26;102276.40;;;2.14
65823;BMP180;52585;47.566;19.056;2022-12-18T08:41:03;102277.60;;;2.20
65823;BMP180;52585;47.566;19.056;2022-12-18T08:43:29;102273.40;;;2.20
65823;BMP180;52585;47.566;19.056;2022-12-18T08:46:13;102271.40;;;2.20
65823;BMP180;52585;47.566;19.056;2022-12-18T08:48:38;102271.20;;;2.20
65823;BMP180;52585;47.566;19.056;2022-12-18T08:51:04;102275.60;;;2.20
65823;BMP180;52585;47.566;19.056;2022-12-18T08:53:29;102275.40;;;2.20
65823;BMP180;52585;47.566;19.056;2022-12-18T08:55:56;102281.00;;;2.20
65823;BMP180;52585;47.566;19.056;2022-12-18T08:58:22;102286.80;;;2.28
65823;BMP180;52585;47.566;19.056;2022-12-18T09:00:47;102281.20;;;2.30
65823;BMP180;52585;47.566;19.056;2022-12-18T09:03:18;102288.20;;;2.32
65823;BMP180;52585;47.566;19.056;2022-12-18T09:05:46;102301.00;;;2.40
65823;BMP180;52585;47.566;19.056;2022-12-18T09:08:12;102309.00;;;2.40
65823;BMP180;52585;47.566;19.056;2022-12-18T09:10:43;102307.00;;;2.40
65823;BMP180;52585;47.566;19.056;2022-12-18T09:13:11;102309.00;;;2.42
65823;BMP180;52585;47.566;19.056;2022-12-18T09:15:42;102315.60;;;2.48
65823;BMP180;52585;47.566;19.056;2022-12-18T09:18:09;102315.20;;;2.50
65823;BMP180;52585;47.566;19.056;2022-12-18T09:20:36;102319.60;;;2.50
65823;BMP180;52585;47.566;19.056;2022-12-18T09:23:03;102314.40;;;2.50
65823;BMP180;52585;47.566;19.056;2022-12-18T09:25:30;102310.80;;;2.54
65823;BMP180;52585;47.566;19.056;2022-12-18T09:28:05;102306.60;;;2.60
65823;BMP180;52585;47.566;19.056;2022-12-18T09:30:31;102306.20;;;2.60
65823;BMP180;52585;47.566;19.056;2022-12-18T09:32:59;102309.80;;;2.60
65823;BMP180;52585;47.566;19.056;2022-12-18T09:35:25;102309.00;;;2.60
65823;BMP180;52585;47.566;19.056;2022-12-18T09:37:50;102314.00;;;2.70
65823;BMP180;52585;47.566;19.056;2022-12-18T09:40:20;102306.80;;;2.70
65823;BMP180;52585;47.566;19.056;2022-12-18T09:42:53;102308.00;;;2.70
65823;BMP180;52585;47.566;19.056;2022-12-18T09:45:21;102305.60;;;2.76
65823;BMP180;52585;47.566;19.056;2022-12-18T09:47:49;102307.40;;;2.80
65823;BMP180;52585;47.566;19.056;2022-12-18T09:50:37;102302.40;;;2.80
65823;BMP180;52585;47.566;19.056;2022-12-18T09:53:14;102301.60;;;2.82
65823;BMP180;52585;47.566;19.056;2022-12-18T09:55:46;102298.20;;;2.90
65823;BMP180;52585;47.566;19.056;2022-12-18T09:58:26;102296.60;;;2.90
65823;BMP180;52585;47.566;19.056;2022-12-18T10:00:54;102302.20;;;2.90
65823;BMP180;52585;47.566;19.056;2022-12-18T10:03:20;102303.40;;;2.90
65823;BMP180;52585;47.566;19.056;2022-12-18T10:06:15;102298.20;;;2.94
65823;BMP180;52585;47.566;19.056;2022-12-18T10:12:00;102292.40;;;3.00
65823;BMP180;52585;47.566;19.056;2022-12-18T10:20:33;102293.60;;;3.10
65823;BMP180;52585;47.566;19.056;2022-12-18T10:26:02;102297.60;;;3.14
65823;BMP180;52585;47.566;19.056;2022-12-18T10:28:31;102298.00;;;3.20
65823;BMP180;52585;47.566;19.056;2022-12-18T10:30:58;102293.40;;;3.20
65823;BMP180;52585;47.566;19.056;2022-12-18T10:33:29;102291.60;;;3.20
65823;BMP180;52585;47.566;19.056;2022-12-18T10:35:55;102287.80;;;3.22
65823;BMP180;52585;47.566;19.056;2022-12-18T10:38:29;102293.40;;;3.30
65823;BMP180;52585;47.566;19.056;2022-12-18T10:41:06;102286.00;;;3.30
65823;BMP180;52585;47.566;19.056;2022-12-18T10:44:19;102287.60;;;3.30
65823;BMP180;52585;47.566;19.056;2022-12-18T10:46:49;102288.40;;;3.40
65823;BMP180;52585;47.566;19.056;2022-12-18T10:49:35;102287.80;;;3.40
65823;BMP180;52585;47.566;19.056;2022-12-18T10:52:23;102286.00;;;3.40
65823;BMP180;52585;47.566;19.056;2022-12-18T10:55:03;102287.60;;;3.40
65823;BMP180;52585;47.566;19.056;2022-12-18T10:57:38;102286.40;;;3.46
65823;BMP180;52585;47.566;19.056;2022-12-18T11:00:29;102280.40;;;3.50
65823;BMP180;52585;47.566;19.056;2022-12-18T11:02:56;102282.00;;;3.50
65823;BMP180;52585;47.566;19.056;2022-12-18T11:07:50;102285.40;;;3.52
65823;BMP180;52585;47.566;19.056;2022-12-18T11:10:22;102280.00;;;3.58
65823;BMP180;52585;47.566;19.056;2022-12-18T11:12:49;102279.80;;;3.60
65823;BMP180;52585;47.566;19.056;2022-12-18T11:15:29;102267.00;;;3.60
65823;BMP180;52585;47.566;19.056;2022-12-18T11:17:55;102269.20;;;3.60
65823;BMP180;52585;47.566;19.056;2022-12-18T11:20:32;102267.00;;;3.64
65823;BMP180;52585;47.566;19.056;2022-12-18T11:23:21;102269.80;;;3.70
65823;BMP180;52585;47.566;19.056;2022-12-18T11:25:59;102268.80;;;3.70
65823;BMP180;52585;47.566;19.056;2022-12-18T11:28:43;102269.40;;;3.70
65823;BMP180;52585;47.566;19.056;2022-12-18T11:31:22;102270.00;;;3.76
65823;BMP180;52585;47.566;19.056;2022-12-18T11:34:14;102277.40;;;3.80
65823;BMP180;52585;47.566;19.056;2022-12-18T11:36:46;102274.00;;;3.80
65823;BMP180;52585;47.566;19.056;2022-12-18T11:39:49;102267.20;;;3.80
65823;BMP180;52585;47.566;19.056;2022-12-18T11:42:34;102262.20;;;3.80
65823;BMP180;52585;47.566;19.056;2022-12-18T11:48:19;102264.60;;;3.90
65823;BMP180;52585;47.566;19.056;2022-12-18T11:50:57;102263.20;;;3.90
65823;BMP180;52585;47.566;19.056;2022-12-18T11:53:26;102254.80;;;3.90
65823;BMP180;52585;47.566;19.056;2022-12-18T11:58:50;102258.80;;;3.90
65823;BMP180;52585;47.566;19.056;2022-12-18T12:04:54;102260.40;;;4.00
65823;BMP180;52585;47.566;19.056;2022-12-18T12:17:32;102248.20;;;4.10
65823;BMP180;52585;47.566;19.056;2022-12-18T12:20:17;102246.80;;;4.10
65823;BMP180;52585;47.566;19.056;2022-12-18T12:23:20;102244.80;;;4.10
65823;BMP180;52585;47.566;19.056;2022-12-18T12:31:41;102248.00;;;4.18
65823;BMP180;52585;47.566;19.056;2022-12-18T12:34:43;102250.40;;;4.20
65823;BMP180;52585;47.566;19.056;2022-12-18T12:37:43;102252.60;;;4.20
65823;BMP180;52585;47.566;19.056;2022-12-18T12:40:17;102247.20;;;4.20
65823;BMP180;52585;47.566;19.056;2022-12-18T12:42:54;102246.40;;;4.20
65823;BMP180;52585;47.566;19.056;2022-12-18T12:45:58;102259.20;;;4.28
65823;BMP180;52585;47.566;19.056;2022-12-18T12:51:35;102267.00;;;4.30
65823;BMP180;52585;47.566;19.056;2022-12-18T12:54:05;102270.20;;;4.30
65823;BMP180;52585;47.566;19.056;2022-12-18T13:08:27;102286.80;;;4.30
65823;BMP180;52585;47.566;19.056;2022-12-18T13:10:55;102292.40;;;4.34
65823;BMP180;52585;47.566;19.056;2022-12-18T13:13:54;102294.20;;;4.38
65823;BMP180;52585;47.566;19.056;2022-12-18T13:16:24;102296.60;;;4.40
65823;BMP180;52585;47.566;19.056;2022-12-18T13:18:53;102297.20;;;4.40
65823;BMP180;52585;47.566;19.056;2022-12-18T13:21:28;102296.40;;;4.40
65823;BMP180;52585;47.566;19.056;2022-12-18T13:23:55;102294.40;;;4.40
65823;BMP180;52585;47.566;19.056;2022-12-18T13:32:00;102302.60;;;4.40
65823;BMP180;52585;47.566;19.056;2022-12-18T13:34:23;102301.60;;;4.40
65823;BMP180;52585;47.566;19.056;2022-12-18T13:36:53;102305.00;;;4.48
65823;BMP180;52585;47.566;19.056;2022-12-18T13:39:23;102306.80;;;4.46
65823;BMP180;52585;47.566;19.056;2022-12-18T13:44:38;102311.20;;;4.50
65823;BMP180;52585;47.566;19.056;2022-12-18T13:47:33;102315.60;;;4.50
65823;BMP180;52585;47.566;19.056;2022-12-18T13:50:00;102310.40;;;4.50
65823;BMP180;52585;47.566;19.056;2022-12-18T13:52:37;102315.20;;;4.50
65823;BMP180;52585;47.566;19.056;2022-12-18T13:55:15;102315.40;;;4.50
65823;BMP180;52585;47.566;19.056;2022-12-18T13:57:41;102320.60;;;4.50
65823;BMP180;52585;47.566;19.056;2022-12-18T14:00:24;102322.00;;;4.50
65823;BMP180;52585;47.566;19.056;2022-12-18T14:02:51;102324.20;;;4.56
65823;BMP180;52585;47.566;19.056;2022-12-18T14:05:33;102315.00;;;4.60
65823;BMP180;52585;47.566;19.056;2022-12-18T14:08:13;102321.60;;;4.60
65823;BMP180;52585;47.566;19.056;2022-12-18T14:10:46;102322.20;;;4.58
65823;BMP180;52585;47.566;19.056;2022-12-18T14:13:29;102321.60;;;4.60
65823;BMP180;52585;47.566;19.056;2022-12-18T14:15:56;102323.20;;;4.60
65823;BMP180;52585;47.566;19.056;2022-12-18T14:18:53;102326.60;;;4.60
65823;BMP180;52585;47.566;19.056;2022-12-18T14:21:27;102326.20;;;4.54
65823;BMP180;52585;47.566;19.056;2022-12-18T14:24:20;102326.20;;;4.52
65823;BMP180;52585;47.566;19.056;2022-12-18T14:26:48;102321.00;;;4.50
65823;BMP180;52585;47.566;19.056;2022-12-18T14:29:29;102325.40;;;4.50
65823;BMP180;52585;47.566;19.056;2022-12-18T14:32:18;102332.40;;;4.50
65823;BMP180;52585;47.566;19.056;2022-12-18T14:34:48;102332.80;;;4.50
65823;BMP180;52585;47.566;19.056;2022-12-18T14:37:17;102337.20;;;4.44
65823;BMP180;52585;47.566;19.056;2022-12-18T14:40:17;102337.40;;;4.40
65823;BMP180;52585;47.566;19.056;2022-12-18T14:42:43;102344.60;;;4.40
65823;BMP180;52585;47.566;19.056;2022-12-18T14:45:44;102351.00;;;4.40
65823;BMP180;52585;47.566;19.056;2022-12-18T14:48:38;102354.40;;;4.38
65823;BMP180;52585;47.566;19.056;2022-12-18T14:51:16;102358.00;;;4.30
65823;BMP180;52585;47.566;19.056;2022-12-18T14:53:46;102362.80;;;4.30
65823;BMP180;52585;47.566;19.056;2022-12-18T14:56:19;102371.00;;;4.30
65823;BMP180;52585;47.566;19.056;2022-12-18T14:58:58;102367.40;;;4.20
65823;BMP180;52585;47.566;19.056;2022-12-18T15:01:28;102368.40;;;4.20
65823;BMP180;52585;47.566;19.056;2022-12-18T15:03:57;102373.60;;;4.20
65823;BMP180;52585;47.566;19.056;2022-12-18T15:06:36;102375.20;;;4.10
65823;BMP180;52585;47.566;19.056;2022-12-18T15:09:27;102381.00;;;4.10
65823;BMP180;52585;47.566;19.056;2022-12-18T15:12:01;102390.40;;;4.10
65823;BMP180;52585;47.566;19.056;2022-12-18T15:14:38;102390.20;;;4.00
65823;BMP180;52585;47.566;19.056;2022-12-18T15:17:19;102390.80;;;4.00
65823;BMP180;52585;47.566;19.056;2022-12-18T15:19:50;102391.60;;;3.98
65823;BMP180;52585;47.566;19.056;2022-12-18T15:22:34;102403.20;;;3.90
65823;BMP180;52585;47.566;19.056;2022-12-18T15:25:03;102407.60;;;3.90
65823;BMP180;52585;47.566;19.056;2022-12-18T15:27:47;102406.00;;;3.80
65823;BMP180;52585;47.566;19.056;2022-12-18T15:30:22;102408.20;;;3.80
65823;BMP180;52585;47.566;19.056;2022-12-18T15:32:50;102408.60;;;3.80
65823;BMP180;52585;47.566;19.056;2022-12-18T15:35:19;102413.00;;;3.70
65823;BMP180;52585;47.566;19.056;2022-12-18T15:37:46;102418.20;;;3.70
65823;BMP180;52585;47.566;19.056;2022-12-18T15:40:23;102422.20;;;3.70
65823;BMP180;52585;47.566;19.056;2022-12-18T15:42:53;102418.00;;;3.70
65823;BMP180;52585;47.566;19.056;2022-12-18T15:45:39;102425.20;;;3.60
65823;BMP180;52585;47.566;19.056;2022-12-18T15:48:21;102433.20;;;3.60
65823;BMP180;52585;47.566;19.056;2022-12-18T15:50:53;102435.00;;;3.60
65823;BMP180;52585;47.566;19.056;2022-12-18T15:53:24;102437.40;;;3.52
65823;BMP180;52585;47.566;19.056;2022-12-18T15:55:50;102447.40;;;3.50
65823;BMP180;52585;47.566;19.056;2022-12-18T15:58:35;102441.00;;;3.50